createdAt,value
2022-09-04T00:03:26.652Z,100371.28
2022-09-04T00:08:52.841Z,100375.13
2022-09-04T00:14:02.558Z,100380.34
2022-09-04T00:19:16.262Z,100377.50
2022-09-04T00:24:24.238Z,100382.16
2022-09-04T00:29:40.476Z,100375.84
2022-09-04T00:34:59.634Z,100374.56
2022-09-04T00:40:09.221Z,100375.84
2022-09-04T00:45:31.411Z,100376.00
2022-09-04T00:51:04.053Z,100383.41
2022-09-04T00:56:30.810Z,100383.78
2022-09-04T01:01:38.917Z,100393.91
2022-09-04T01:06:51.073Z,100390.25
2022-09-04T01:12:09.855Z,100405.13
2022-09-04T01:17:26.455Z,100400.47
2022-09-04T01:22:53.993Z,100398.19
2022-09-04T01:28:05.472Z,100408.19
2022-09-04T01:33:17.161Z,100410.50
2022-09-04T01:38:32.697Z,100415.94
2022-09-04T01:43:38.742Z,100422.09
2022-09-04T01:48:47.684Z,100419.91
2022-09-04T01:54:05.777Z,100428.69
2022-09-04T01:59:24.753Z,100419.78
2022-09-04T02:04:33.559Z,100431.94
2022-09-04T02:09:46.665Z,100440.06
2022-09-04T02:15:05.132Z,100438.25
2022-09-04T02:20:23.413Z,100437.56
2022-09-04T02:25:33.911Z,100437.75
2022-09-04T02:30:46.707Z,100433.09
2022-09-04T02:36:03.852Z,100440.75
2022-09-04T02:41:19.861Z,100436.34
2022-09-04T02:46:33.714Z,100449.94
2022-09-04T02:51:55.335Z,100450.75
2022-09-04T02:57:09.384Z,100442.03
2022-09-04T03:02:23.254Z,100454.59
2022-09-04T03:07:32.875Z,100453.13
2022-09-04T03:12:41.380Z,100458.59
2022-09-04T03:17:51.314Z,100458.97
2022-09-04T03:23:02.938Z,100460.81
2022-09-04T03:28:10.061Z,100461.28
2022-09-04T03:33:27.529Z,100460.81
2022-09-04T03:38:35.994Z,100460.00
2022-09-04T03:43:57.920Z,100469.44
2022-09-04T03:49:16.741Z,100463.00
2022-09-04T03:54:35.866Z,100469.81
2022-09-04T03:59:50.447Z,100458.56
2022-09-04T04:05:30.033Z,100462.25
2022-09-04T04:10:46.475Z,100466.41
2022-09-04T04:16:10.058Z,100477.00
2022-09-04T04:21:31.407Z,100471.56
2022-09-04T04:26:52.892Z,100489.06
2022-09-04T04:32:16.396Z,100493.72
2022-09-04T04:37:31.585Z,100498.19
2022-09-04T04:42:42.090Z,100514.38
2022-09-04T04:48:22.541Z,100512.38
2022-09-04T04:53:32.444Z,100524.59
2022-09-04T04:58:54.657Z,100521.16
2022-09-04T05:04:12.857Z,100527.75
2022-09-04T05:09:24.053Z,100543.97
2022-09-04T05:14:39.511Z,100546.59
2022-09-04T05:19:52.405Z,100561.81
2022-09-04T05:25:04.540Z,100567.41
2022-09-04T05:30:16.720Z,100578.66
2022-09-04T05:35:35.212Z,100581.97
2022-09-04T05:41:14.478Z,100585.59
2022-09-04T05:46:33.054Z,100591.03
2022-09-04T05:51:57.043Z,100597.16
2022-09-04T05:57:24.184Z,100599.31
2022-09-04T06:03:05.332Z,100598.47
2022-09-04T06:08:25.193Z,100606.56
2022-09-04T06:13:58.564Z,100605.88
2022-09-04T06:19:17.848Z,100613.44
2022-09-04T06:24:38.939Z,100619.38
2022-09-04T06:30:06.805Z,100610.94
2022-09-04T06:35:31.856Z,100621.06
2022-09-04T06:40:50.282Z,100629.97
2022-09-04T06:46:07.361Z,100636.16
2022-09-04T06:51:24.309Z,100638.66
2022-09-04T06:56:50.317Z,100642.72
2022-09-04T07:02:17.674Z,100638.06
2022-09-04T07:07:32.038Z,100649.84
2022-09-04T07:12:49.197Z,100645.47
2022-09-04T07:18:04.777Z,100650.09
2022-09-04T07:23:40.730Z,100658.72
2022-09-04T07:28:57.781Z,100664.59
2022-09-04T07:34:12.319Z,100667.34
2022-09-04T07:39:24.560Z,100670.09
2022-09-04T07:44:35.551Z,100666.13
2022-09-04T07:49:51.115Z,100676.84
2022-09-04T07:55:11.814Z,100689.16
2022-09-04T08:00:18.712Z,100688.53
2022-09-04T08:05:32.874Z,100689.34
2022-09-04T08:10:43.022Z,100694.38
2022-09-04T08:15:59.273Z,100700.03
2022-09-04T08:21:17.232Z,100701.59
2022-09-04T08:26:31.197Z,100709.03
2022-09-04T08:31:44.652Z,100706.00
2022-09-04T08:36:59.620Z,100707.94
2022-09-04T08:42:46.979Z,100706.59
2022-09-04T08:48:49.748Z,100713.91
2022-09-04T08:54:16.029Z,100721.84
2022-09-04T08:59:48.103Z,100732.56
2022-09-04T09:05:29.348Z,100728.88
2022-09-04T09:10:56.262Z,100737.31
2022-09-04T09:16:20.448Z,100738.97
2022-09-04T09:21:40.057Z,100733.97
2022-09-04T09:27:02.591Z,100727.16
2022-09-04T09:32:46.297Z,100730.59
2022-09-04T09:38:15.098Z,100731.59
2022-09-04T09:43:50.767Z,100716.53
2022-09-04T09:49:30.090Z,100718.72
2022-09-04T09:55:15.732Z,100726.56
2022-09-04T10:00:24.167Z,100727.16
2022-09-04T10:06:11.059Z,100724.47
2022-09-04T10:11:36.837Z,100725.06
2022-09-04T10:17:16.520Z,100727.78
2022-09-04T10:22:48.483Z,100728.19
2022-09-04T10:28:21.238Z,100720.41
2022-09-04T10:33:45.094Z,100720.78
2022-09-04T10:39:22.016Z,100726.13
2022-09-04T10:44:42.464Z,100717.47
2022-09-04T10:50:03.911Z,100735.34
2022-09-04T10:55:29.357Z,100732.19
2022-09-04T11:00:51.375Z,100732.72
2022-09-04T11:06:31.674Z,100721.78
2022-09-04T11:12:09.868Z,100726.31
2022-09-04T11:17:52.429Z,100727.50
2022-09-04T11:23:42.201Z,100732.22
2022-09-04T11:29:02.250Z,100721.53
2022-09-04T11:34:50.823Z,100725.03
2022-09-04T11:40:39.080Z,100726.47
2022-09-04T11:45:57.967Z,100721.53
2022-09-04T11:51:29.102Z,100721.25
2022-09-04T11:56:46.331Z,100720.00
2022-09-04T12:02:11.628Z,100719.88
2022-09-04T12:07:40.647Z,100722.56
2022-09-04T12:13:19.558Z,100716.16
2022-09-04T12:19:09.560Z,100720.44
2022-09-04T12:24:37.278Z,100715.81
2022-09-04T12:30:03.248Z,100718.03
2022-09-04T12:35:50.837Z,100700.31
2022-09-04T12:41:03.347Z,100705.28
2022-09-04T12:46:17.408Z,100697.84
2022-09-04T12:51:25.345Z,100706.72
2022-09-04T12:56:42.254Z,100700.88
2022-09-04T13:02:02.059Z,100700.22
2022-09-04T13:07:24.575Z,100689.75
2022-09-04T13:12:40.787Z,100703.38
2022-09-04T13:17:55.307Z,100701.56
2022-09-04T13:23:13.488Z,100695.78
2022-09-04T13:28:30.414Z,100702.44
2022-09-04T13:33:53.352Z,100705.50
2022-09-04T13:39:42.617Z,100712.44
2022-09-04T13:45:10.130Z,100706.06
2022-09-04T13:50:25.501Z,100714.28
2022-09-04T13:55:34.773Z,100715.16
2022-09-04T14:00:50.409Z,100718.59
2022-09-04T14:05:55.938Z,100718.00
2022-09-04T14:11:25.715Z,100722.53
2022-09-04T14:16:34.011Z,100723.19
2022-09-04T14:21:58.706Z,100715.31
2022-09-04T14:27:11.380Z,100719.81
2022-09-04T14:32:25.921Z,100725.84
2022-09-04T14:37:48.466Z,100714.72
2022-09-04T14:42:59.694Z,100718.19
2022-09-04T14:48:09.399Z,100720.88
2022-09-04T14:53:21.549Z,100724.41
2022-09-04T14:58:31.165Z,100723.75
2022-09-04T15:03:46.748Z,100724.13
2022-09-04T15:08:51.758Z,100723.09
2022-09-04T15:14:04.880Z,100730.09
2022-09-04T15:19:26.855Z,100736.50
2022-09-04T15:24:37.960Z,100733.66
2022-09-04T15:29:59.598Z,100731.41
2022-09-04T15:35:23.079Z,100742.34
2022-09-04T15:40:35.723Z,100736.00
2022-09-04T15:45:46.007Z,100738.28
2022-09-04T15:51:03.684Z,100746.34
2022-09-04T15:56:11.144Z,100741.41
2022-09-04T16:01:17.456Z,100746.16
2022-09-04T16:06:32.844Z,100762.25
2022-09-04T16:11:47.535Z,100756.66
2022-09-04T16:16:54.586Z,100753.97
2022-09-04T16:22:11.638Z,100761.59
2022-09-04T16:27:18.212Z,100758.94
2022-09-04T16:32:23.396Z,100761.41
2022-09-04T16:37:33.278Z,100761.00
2022-09-04T16:42:42.509Z,100770.38
2022-09-04T16:47:56.749Z,100768.75
2022-09-04T16:53:14.458Z,100770.78
2022-09-04T16:58:40.358Z,100772.25
2022-09-04T17:04:13.497Z,100775.94
2022-09-04T17:09:37.975Z,100787.13
2022-09-04T17:14:47.603Z,100786.16
2022-09-04T17:20:05.190Z,100789.47
2022-09-04T17:28:56.457Z,100785.19
2022-09-04T17:30:51.423Z,100782.53
2022-09-04T17:40:37.323Z,100794.91
2022-09-04T17:41:47.371Z,100799.03
2022-09-04T17:47:10.132Z,100798.03
2022-09-04T17:52:23.009Z,100806.03
2022-09-04T17:57:47.977Z,100810.97
2022-09-04T18:02:57.545Z,100820.03
2022-09-04T18:08:16.471Z,100823.06
2022-09-04T18:13:37.988Z,100824.88
2022-09-04T18:18:47.403Z,100829.38
2022-09-04T18:23:59.777Z,100834.69
2022-09-04T18:30:02.033Z,100833.81
2022-09-04T18:37:20.792Z,100844.63
2022-09-04T18:40:13.023Z,100848.25
2022-09-04T18:50:30.653Z,100858.00
2022-09-04T18:51:12.551Z,100859.38
2022-09-04T18:56:24.794Z,100864.22
2022-09-04T19:01:46.512Z,100873.56
2022-09-04T19:07:07.818Z,100858.44
2022-09-04T19:12:17.948Z,100872.75
2022-09-04T19:17:26.504Z,100883.09
2022-09-04T19:22:36.453Z,100882.19
2022-09-04T19:27:42.842Z,100885.41
2022-09-04T19:33:10.003Z,100884.88
2022-09-04T19:44:01.221Z,100897.31
2022-09-04T19:46:18.861Z,100893.69
2022-09-04T19:51:28.803Z,100903.22
2022-09-04T19:54:59.898Z,100908.47
2022-09-04T20:00:42.996Z,100899.09
2022-09-04T20:05:57.874Z,100907.19
2022-09-04T20:11:34.805Z,100909.31
2022-09-04T20:16:48.440Z,100913.09
2022-09-04T20:21:57.615Z,100915.66
2022-09-04T20:27:09.788Z,100915.56
2022-09-04T20:32:19.808Z,100918.94
2022-09-04T20:37:34.306Z,100917.16
2022-09-04T20:42:42.674Z,100918.72
2022-09-04T20:52:52.987Z,100921.75
2022-09-04T20:53:32.485Z,100921.84
2022-09-04T21:03:13.781Z,100921.16
2022-09-04T21:04:42.840Z,100929.25
2022-09-04T21:10:00.703Z,100930.97
2022-09-04T21:15:12.741Z,100929.88
2022-09-04T21:21:01.009Z,100939.38
2022-09-04T21:26:19.299Z,100937.44
2022-09-04T21:31:50.090Z,100937.13
2022-09-04T21:37:04.213Z,100951.94
2022-09-04T21:42:34.865Z,100951.03
2022-09-04T21:48:18.355Z,100946.06
2022-09-04T21:54:31.208Z,100940.59
2022-09-04T22:02:42.418Z,100940.97
2022-09-04T22:05:43.837Z,100943.88
2022-09-04T22:13:40.446Z,100938.56
2022-09-04T22:16:46.542Z,100939.56
2022-09-04T22:22:03.681Z,100939.44
2022-09-04T22:28:07.259Z,100935.66
2022-09-04T22:34:14.295Z,100932.03
2022-09-04T22:39:31.935Z,100938.06
2022-09-04T22:44:54.566Z,100934.09
2022-09-04T22:50:49.576Z,100938.91
2022-09-04T22:56:06.598Z,100944.44
2022-09-04T23:01:37.852Z,100942.44
2022-09-04T23:12:31.986Z,100942.47
2022-09-04T23:14:02.712Z,100951.44
2022-09-04T23:23:52.127Z,100943.66
2022-09-04T23:26:43.056Z,100946.50
2022-09-04T23:30:25.753Z,100948.53
2022-09-04T23:35:44.112Z,100944.91
2022-09-04T23:40:53.637Z,100948.06
2022-09-04T23:46:26.402Z,100954.84
2022-09-04T23:51:41.565Z,100951.38
2022-09-04T23:56:51.423Z,100949.56
